createdAt,value
2023-07-03T00:11:56.822Z,962.15
2023-07-03T00:26:58.614Z,962.09
2023-07-03T00:42:00.382Z,962.04
2023-07-03T00:57:02.174Z,962.08
2023-07-03T01:12:04.973Z,962.08
2023-07-03T01:27:06.870Z,962.07
2023-07-03T01:42:08.687Z,962.02
2023-07-03T01:57:10.497Z,961.98
2023-07-03T02:12:12.334Z,961.93
2023-07-03T02:27:14.260Z,962.02
2023-07-03T02:42:16.154Z,962.02
2023-07-03T02:57:17.995Z,962.11
2023-07-03T03:12:19.901Z,962.25
2023-07-03T03:27:21.718Z,962.33
2023-07-03T03:42:23.544Z,962.6
2023-07-03T03:57:25.373Z,962.76
2023-07-03T04:12:27.150Z,962.97
2023-07-03T04:27:28.983Z,963.22
2023-07-03T04:42:30.816Z,963.34
2023-07-03T04:57:32.781Z,963.55
2023-07-03T05:12:34.598Z,963.67
2023-07-03T05:27:36.436Z,963.75
2023-07-03T05:42:38.240Z,963.79
2023-07-03T05:57:40.102Z,963.83
2023-07-03T06:12:41.949Z,963.91
2023-07-03T06:27:43.794Z,963.86
2023-07-03T06:42:45.556Z,964.08
2023-07-03T06:57:47.482Z,964.13
2023-07-03T07:12:49.242Z,964.16
2023-07-03T07:27:51.044Z,964.33
2023-07-03T07:42:52.845Z,964.25
2023-07-03T07:57:54.603Z,964.34
2023-07-03T08:12:56.500Z,964.28
2023-07-03T08:27:58.309Z,964.36
2023-07-03T08:43:00.104Z,964.45
2023-07-03T08:58:02.143Z,964.68
2023-07-03T09:13:04.104Z,964.86
2023-07-03T09:28:05.943Z,964.9
2023-07-03T09:43:07.814Z,964.91
2023-07-03T09:58:09.610Z,964.95
2023-07-03T10:13:11.446Z,965.11
2023-07-03T10:28:13.301Z,965.23
2023-07-03T10:43:15.226Z,965.33
2023-07-03T10:58:16.993Z,965.52
2023-07-03T11:13:18.845Z,965.69
2023-07-03T11:28:20.695Z,965.8
2023-07-03T11:58:24.559Z,966.07
2023-07-03T12:13:26.463Z,966.21
2023-07-03T12:28:28.274Z,966.31
2023-07-03T12:43:30.092Z,966.43
2023-07-03T12:58:31.924Z,966.5
2023-07-03T13:13:33.930Z,966.54
2023-07-03T13:28:35.749Z,966.58
2023-07-03T13:43:37.560Z,966.56
2023-07-03T13:58:39.357Z,966.59
2023-07-03T14:13:41.254Z,966.51
2023-07-03T14:28:43.191Z,966.49
2023-07-03T14:43:45.065Z,966.44
2023-07-03T14:58:46.874Z,966.35
2023-07-03T15:13:48.903Z,966.42
2023-07-03T15:28:50.784Z,966.29
2023-07-03T15:43:52.860Z,966.2
2023-07-03T15:58:54.690Z,966.09
2023-07-03T16:13:56.509Z,965.91
2023-07-03T16:28:58.410Z,965.74
2023-07-03T16:44:00.227Z,965.49
2023-07-03T16:59:02.072Z,965.39
2023-07-03T17:14:03.897Z,965.29
2023-07-03T17:29:05.648Z,965.1
2023-07-03T17:44:07.458Z,965.07
2023-07-03T17:59:09.262Z,964.95
2023-07-03T18:14:11.094Z,964.8
2023-07-03T18:29:12.949Z,964.55
2023-07-03T18:44:14.799Z,964.32
2023-07-03T18:59:16.638Z,964.13
2023-07-03T19:14:18.428Z,963.82
2023-07-03T19:29:20.289Z,963.7
2023-07-03T19:44:22.133Z,963.65
2023-07-03T19:59:24.043Z,963.43
2023-07-03T20:14:25.873Z,963.38
2023-07-03T20:29:27.717Z,963.41
2023-07-03T20:44:29.565Z,963.35
2023-07-03T20:59:31.324Z,963.31
2023-07-03T21:14:33.117Z,963.26
2023-07-03T21:29:34.932Z,963.05
2023-07-03T21:44:36.789Z,962.88
2023-07-03T21:59:38.586Z,962.97
2023-07-03T22:14:40.468Z,962.79
2023-07-03T22:29:42.264Z,962.64
2023-07-03T22:44:44.083Z,962.56
2023-07-03T22:59:45.875Z,962.6
2023-07-03T23:14:47.718Z,962.51
2023-07-03T23:29:49.553Z,962.57
2023-07-03T23:44:51.383Z,962.44
2023-07-03T23:59:53.247Z,962.49
